Tuesday, March 31, 2015
02:04 UTC
  |  Log In   |  Register Free
Airport Search:

Vidalia Regional Airport
(KVDI)

Vidalia Regional Airport Diagram
No Airport Diagram Available

FAA data valid effective March 05, 2015 - April 30, 2015 (unless otherwise noted).

 
 
 
 
 
 
 
 
 
 
 
 
 
 

Current Aviation Weather for Vidalia Regional Airport (KVDI)

The most recent METAR observation for KVDI was updated at: 0114
METAR Summary (Translated METAR)
KVDI
310055Z AUTO 00000KT 10SM CLR 15/14 A3009 RMK AO2
KAZE
310055Z AUTO 00000KT 10SM CLR 16/16 A3009 RMK AO2
(23.2 nm SW from KVDI)
KSBO
310055Z AUTO 00000KT 10SM CLR 15/14 A3009 RMK AO2
(25 nm NE from KVDI)
TAF
No TAF information found within 50 nm of KVDI
  Airport Weather Conditions for KVDI

 Current Weather at VDI
59° F
Fair
North winds at 0.0 mph
VDI NOAA Radar

Pressure: 30.09 in
Humidity: 94%
Wind: Calm
Dew Point: 57.2°F
Visibility: 10.00 mi


Airport Weather Forecast for KVDI

Translated METAR and TAF for KVDI
Translated METAR for KVDI (0204 UTC 31 March 2015)
found at http://aviationweather.gov/adds/metars/
 
METAR text: KVDI 310155Z AUTO 22003KT 10SM CLR 14/13 A3010 RMK AO2
Conditions at: KVDI (VIDALIA MUNI , GA, US) observed 0155 UTC 31 March 2015
Temperature: 14.0°C (57°F)
Dewpoint: 13.0°C (55°F) [RH = 94%]
Pressure (altimeter): 30.10 inches Hg (1019.4 mb)
Winds: from the SW (220 degrees) at 3 MPH (3 knots; 1.6 m/s)
Visibility: 10 or more miles (16+ km)
Ceiling: at least 12,000 feet AGL
Clouds: sky clear below 12,000 feet AGL
Weather: automated observation with no human augmentation;
there may or may not be significant weather present at this time
Translated TAF for KVDI

There is no translated TAF available for this airport

Find All Airport Services Find A Hotel Find A Rental Car Find A Golf Course Find A Restaurant $100 Hamburger



FBO's on the Field
FBO Company Facility Photos Services Transportation Aviation Fuel Prices: Prices include tax
Catering Weather Repair Courtesy Rental Type 100LL JetA JetA+ MOGAS 8087
 
Vidalia Regional Airport

This FBO has not yet been rated
FS:Phillips 66
Last Updated: Mar-23
Login to update fuel prices
SS:
Contact Vidalia Regional AirportMore FBO Information
 
Add another FBO Facility Photos Catering Weather Repair Courtesy Rental Type 100LL JetA JetA+ MOGAS 8087
Services Transportation Aviation Fuel Prices: Prices include tax


model-print
model-print
model-print
model-print